Time;durP1;ratioP1;P1;durP2;ratioP2;P2;SDS_P1;SDS_P2;PMS_P1;PMS_P2;Temp;Humidity;BMP_temperature;BMP_pressure;BME280_temperature;BME280_humidity;BME280_pressure;Samples;Min_cycle;Max_cycle;Signal;HPM_P1;HPM_P2
2023/01/25 00:01:05;;;;;;;42.37;24.83;;;-0.20;99.90;;;;;;4882326;29;20490;-87
2023/01/25 00:03:30;;;;;;;44.60;24.37;;;-0.20;99.90;;;;;;4881610;29;20056;-87
2023/01/25 00:06:01;;;;;;;43.90;24.67;;;-0.30;99.90;;;;;;4899332;29;20036;-87
2023/01/25 00:08:27;;;;;;;43.80;24.70;;;-0.30;99.90;;;;;;4882811;29;20052;-87
2023/01/25 00:10:52;;;;;;;45.87;26.07;;;-0.30;99.90;;;;;;4881928;29;20040;-87
2023/01/25 00:13:18;;;;;;;44.30;24.40;;;-0.30;99.90;;;;;;4882665;29;20052;-87
2023/01/25 00:15:44;;;;;;;43.63;24.87;;;-0.20;99.90;;;;;;4899146;29;20405;-87
2023/01/25 00:18:09;;;;;;;42.40;24.13;;;-0.20;99.90;;;;;;4901356;29;20072;-87
2023/01/25 00:20:53;;;;;;;45.60;25.67;;;1.20;99.90;;;;;;4899232;29;20048;-86
2023/01/25 00:23:19;;;;;;;45.97;26.27;;;0.00;99.90;;;;;;4882234;29;20082;-87
2023/01/25 00:25:44;;;;;;;44.47;25.90;;;-0.50;99.90;;;;;;4886012;29;20048;-87
2023/01/25 00:28:10;;;;;;;46.03;25.23;;;-0.30;99.90;;;;;;4882366;29;20485;-87
2023/01/25 00:30:36;;;;;;;44.80;25.70;;;-0.30;99.90;;;;;;4882258;29;20048;-87
2023/01/25 00:33:25;;;;;;;43.60;24.47;;;-0.10;99.90;;;;;;4898336;29;20044;-87
2023/01/25 00:35:55;;;;;;;44.90;25.73;;;-0.30;99.90;;;;;;4898037;29;20057;-87
2023/01/25 00:38:34;;;;;;;47.27;26.60;;;-0.30;99.90;;;;;;4882049;29;20155;-86
2023/01/25 00:40:59;;;;;;;47.07;25.23;;;-0.30;99.90;;;;;;4881619;29;20047;-87
2023/01/25 00:43:25;;;;;;;45.70;24.97;;;-0.30;99.90;;;;;;4897118;29;20041;-86
2023/01/25 00:45:51;;;;;;;47.27;25.97;;;-0.30;99.90;;;;;;4881058;29;20040;-87
2023/01/25 00:48:17;;;;;;;45.93;25.77;;;-0.30;99.90;;;;;;4881750;29;20156;-86
2023/01/25 00:50:43;;;;;;;46.87;26.03;;;-0.30;99.90;;;;;;4898805;29;20048;-86
2023/01/25 00:53:08;;;;;;;45.10;24.97;;;-0.30;99.90;;;;;;4897650;29;20052;-87
2023/01/25 00:55:34;;;;;;;44.17;24.90;;;-0.30;99.90;;;;;;4881517;29;20037;-86
2023/01/25 00:58:00;;;;;;;46.40;25.70;;;-0.30;99.90;;;;;;4898112;29;20127;-86
2023/01/25 01:00:25;;;;;;;46.40;25.43;;;-0.30;99.90;;;;;;4880773;29;20382;-87
2023/01/25 01:02:51;;;;;;;45.23;25.23;;;-0.30;99.90;;;;;;4898159;29;20433;-86
2023/01/25 01:05:16;;;;;;;41.97;23.73;;;-0.30;99.90;;;;;;4898460;29;20049;-87
2023/01/25 01:07:42;;;;;;;45.37;24.80;;;-0.40;99.90;;;;;;4880259;29;20055;-86
2023/01/25 01:10:09;;;;;;;43.40;24.53;;;-0.40;99.90;;;;;;4881063;29;20056;-86
2023/01/25 01:12:34;;;;;;;45.17;24.60;;;-0.40;99.90;;;;;;4897433;29;20076;-86
2023/01/25 01:15:00;;;;;;;44.43;24.40;;;-0.40;99.90;;;;;;4880374;29;20076;-86
2023/01/25 01:17:43;;;;;;;47.00;25.67;;;-0.40;99.90;;;;;;4881729;29;20131;-86
2023/01/25 01:20:09;;;;;;;44.55;24.35;;;-0.60;99.90;;;;;;4881178;29;20055;-87
2023/01/25 01:22:35;;;;;;;45.40;25.30;;;-0.40;99.90;;;;;;4880684;29;20041;-86
2023/01/25 01:25:19;;;;;;;44.47;25.20;;;-0.60;99.90;;;;;;4881197;29;20068;-86
2023/01/25 01:27:44;;;;;;;45.90;25.23;;;-0.40;99.90;;;;;;4897809;29;20052;-86
2023/01/25 01:30:10;;;;;;;44.40;24.67;;;-0.50;99.90;;;;;;4880398;29;20049;-86
2023/01/25 01:32:36;;;;;;;42.20;24.40;;;-0.40;99.90;;;;;;4881387;29;20517;-86
2023/01/25 01:35:01;;;;;;;45.33;25.10;;;-0.40;99.90;;;;;;4880108;29;20095;-86
2023/01/25 01:37:27;;;;;;;42.27;24.47;;;-0.40;99.90;;;;;;4881304;29;20055;-86
2023/01/25 01:39:55;;;;;;;44.37;24.20;;;-0.40;99.90;;;;;;4880586;29;20052;-86
2023/01/25 01:42:32;;;;;;;46.07;25.37;;;-0.40;99.90;;;;;;4880398;29;20445;-87
2023/01/25 01:44:57;;;;;;;45.40;25.20;;;0.80;99.90;;;;;;4897860;29;20053;-86
2023/01/25 01:47:47;;;;;;;49.70;27.30;;;-0.60;99.90;;;;;;4881187;29;20056;-86
2023/01/25 01:50:20;;;;;;;45.17;25.37;;;-0.60;99.90;;;;;;4880144;29;20528;-86
2023/01/25 01:52:45;;;;;;;45.80;25.43;;;-0.40;99.90;;;;;;4881263;29;20139;-86
2023/01/25 01:55:20;;;;;;;45.70;25.37;;;-0.50;99.90;;;;;;4881684;29;20132;-86
2023/01/25 01:57:53;;;;;;;48.23;26.80;;;-0.40;99.90;;;;;;4897481;29;20171;-86
2023/01/25 02:00:25;;;;;;;46.90;26.20;;;-0.40;99.90;;;;;;4883097;29;20049;-87
2023/01/25 02:02:53;;;;;;;45.43;25.93;;;-0.40;99.90;;;;;;4882595;29;20493;-86
2023/01/25 02:05:29;;;;;;;48.40;27.87;;;-0.40;99.90;;;;;;4880993;29;20116;-86
2023/01/25 02:07:57;;;;;;;45.83;26.03;;;-0.40;99.90;;;;;;4897801;29;20049;-87
2023/01/25 02:10:25;;;;;;;50.53;27.93;;;-0.40;99.90;;;;;;4880650;29;20048;-86
2023/01/25 02:12:54;;;;;;;47.07;26.53;;;-0.40;99.90;;;;;;4881597;29;20057;-86
2023/01/25 02:15:20;;;;;;;48.13;26.87;;;-0.40;99.90;;;;;;4880927;29;20055;-86
2023/01/25 02:17:47;;;;;;;46.97;26.60;;;-0.40;99.90;;;;;;4880332;29;20049;-86
2023/01/25 02:20:36;;;;;;;47.63;26.53;;;-0.40;99.90;;;;;;4897585;29;20109;-87
2023/01/25 02:23:33;;;;;;;47.03;26.40;;;-0.40;99.90;;;;;;4880910;29;20048;-86
2023/01/25 02:26:02;;;;;;;47.97;26.87;;;-0.40;99.90;;;;;;4900397;29;20040;-86
2023/01/25 02:28:37;;;;;;;50.83;26.87;;;-0.40;99.90;;;;;;4884326;29;20123;-86
2023/01/25 02:31:02;;;;;;;51.93;28.80;;;-0.40;99.90;;;;;;4883855;29;20045;-86
2023/01/25 02:33:28;;;;;;;48.50;26.93;;;0.70;99.90;;;;;;4884026;29;20052;-86
2023/01/25 02:36:14;;;;;;;50.33;27.87;;;-0.50;99.90;;;;;;4900841;29;20036;-86
2023/01/25 02:38:52;;;;;;;47.03;26.33;;;-0.50;99.90;;;;;;4913057;29;20047;-87
2023/01/25 02:41:35;;;;;;;47.83;26.33;;;-0.40;99.90;;;;;;4901115;29;20049;-86
2023/01/25 02:44:05;;;;;;;48.08;26.85;;;-0.50;99.90;;;;;;4895539;29;20075;-86
2023/01/25 02:46:33;;;;;;;48.90;26.67;;;-0.50;99.90;;;;;;4902717;29;20050;-87
2023/01/25 02:48:59;;;;;;;50.17;26.87;;;-0.50;99.90;;;;;;4941605;29;20024;-85
2023/01/25 02:51:29;;;;;;;49.77;26.63;;;-0.50;99.90;;;;;;4914493;29;20092;-87
2023/01/25 02:53:55;;;;;;;50.03;27.67;;;-0.40;99.90;;;;;;4902136;29;20103;-86
2023/01/25 02:56:21;;;;;;;49.97;27.67;;;-0.40;99.90;;;;;;4918900;29;20055;-86
2023/01/25 02:58:47;;;;;;;51.73;27.60;;;-0.50;99.90;;;;;;4917713;29;20090;-86
2023/01/25 03:01:13;;;;;;;50.47;27.70;;;-0.40;99.90;;;;;;4918884;29;20075;-86
2023/01/25 03:03:39;;;;;;;50.27;28.07;;;-0.40;99.90;;;;;;4919733;29;20047;-87
2023/01/25 03:06:06;;;;;;;52.83;28.80;;;-0.40;99.90;;;;;;4902162;29;20036;-86
2023/01/25 03:08:32;;;;;;;53.43;29.13;;;-0.40;99.90;;;;;;4917112;29;20056;-86
2023/01/25 03:10:59;;;;;;;52.53;27.60;;;-0.40;99.90;;;;;;4902738;29;20040;-87
2023/01/25 03:13:25;;;;;;;49.73;27.50;;;-0.40;99.90;;;;;;4902331;29;20473;-86
2023/01/25 03:15:51;;;;;;;48.13;26.60;;;-0.40;99.90;;;;;;4935000;29;20040;-86
2023/01/25 03:18:17;;;;;;;49.10;26.23;;;-0.50;99.90;;;;;;4902832;29;20044;-87
2023/01/25 03:20:42;;;;;;;48.60;27.00;;;-0.50;99.90;;;;;;4901579;29;20052;-86
2023/01/25 03:23:08;;;;;;;46.10;25.37;;;-0.50;99.90;;;;;;4919125;29;20095;-86
2023/01/25 03:25:33;;;;;;;45.87;25.83;;;-0.60;99.90;;;;;;4918933;29;20141;-87
2023/01/25 03:27:59;;;;;;;43.87;24.97;;;-0.50;99.90;;;;;;4918154;29;20048;-86
2023/01/25 03:30:25;;;;;;;46.87;25.97;;;-0.60;99.90;;;;;;4922868;29;20048;-86
2023/01/25 03:32:51;;;;;;;46.83;25.60;;;-0.60;99.90;;;;;;4919159;29;20099;-86
2023/01/25 03:35:17;;;;;;;46.37;25.87;;;-0.70;99.90;;;;;;4916505;29;20056;-86
2023/01/25 03:37:43;;;;;;;44.90;24.27;;;-0.60;99.90;;;;;;4921467;28;20043;-86
2023/01/25 03:40:09;;;;;;;46.60;24.87;;;-0.60;99.90;;;;;;4903534;29;20055;-87
2023/01/25 03:42:35;;;;;;;49.37;24.83;;;-0.70;99.90;;;;;;4919918;29;20075;-86
2023/01/25 03:45:01;;;;;;;45.73;23.93;;;-0.70;99.90;;;;;;4918598;29;20076;-86
2023/01/25 03:47:27;;;;;;;47.00;25.10;;;-0.80;99.90;;;;;;4917659;29;20095;-86
2023/01/25 03:49:53;;;;;;;50.47;26.40;;;-0.70;99.90;;;;;;4900860;29;20049;-87
2023/01/25 03:52:19;;;;;;;49.93;24.57;;;-0.70;99.90;;;;;;4915383;29;20064;-87
2023/01/25 03:54:44;;;;;;;49.43;26.23;;;-0.70;99.90;;;;;;4902531;29;20051;-86
2023/01/25 03:57:10;;;;;;;46.90;24.83;;;-0.80;99.90;;;;;;4900639;29;20139;-86
2023/01/25 03:59:35;;;;;;;47.37;25.03;;;-0.70;99.90;;;;;;4918909;29;20048;-86
2023/01/25 04:02:01;;;;;;;48.10;26.13;;;-0.70;99.90;;;;;;4901006;29;20043;-87
2023/01/25 04:04:27;;;;;;;47.73;25.33;;;-0.80;99.90;;;;;;4917793;29;20508;-87
2023/01/25 04:06:52;;;;;;;48.57;26.37;;;-0.70;99.90;;;;;;4901077;29;20036;-87
2023/01/25 04:09:18;;;;;;;48.00;25.63;;;-0.70;99.90;;;;;;4918354;29;20087;-86
2023/01/25 04:11:44;;;;;;;50.90;27.00;;;-0.70;99.90;;;;;;4917391;29;20044;-86
2023/01/25 04:14:10;;;;;;;51.67;27.33;;;-0.80;99.90;;;;;;4918272;29;20056;-87
2023/01/25 04:16:36;;;;;;;51.13;28.50;;;-0.70;99.90;;;;;;4900323;29;20079;-86
2023/01/25 04:19:01;;;;;;;52.70;26.87;;;-0.70;99.90;;;;;;4917880;29;20109;-87
2023/01/25 04:21:27;;;;;;;51.10;27.23;;;-0.70;99.90;;;;;;4918167;29;20058;-86
2023/01/25 04:23:52;;;;;;;49.57;26.30;;;-0.70;99.90;;;;;;4916639;29;20044;-86
2023/01/25 04:26:18;;;;;;;49.87;26.63;;;-0.70;99.90;;;;;;4901076;29;20059;-86
2023/01/25 04:28:44;;;;;;;49.97;26.00;;;-0.70;99.90;;;;;;4916892;29;20071;-86
2023/01/25 04:31:10;;;;;;;49.37;26.47;;;-0.70;99.90;;;;;;4917601;29;20040;-87
2023/01/25 04:33:35;;;;;;;54.17;28.43;;;-0.70;99.90;;;;;;4917625;29;20477;-86
2023/01/25 04:36:01;;;;;;;52.07;28.63;;;-0.70;99.90;;;;;;4917626;29;20055;-86
2023/01/25 04:38:27;;;;;;;52.67;27.30;;;-0.60;99.90;;;;;;4899832;29;20051;-86
2023/01/25 04:40:53;;;;;;;50.83;26.70;;;-0.60;99.90;;;;;;4917563;29;20123;-87
2023/01/25 04:43:20;;;;;;;52.87;28.37;;;-0.60;99.90;;;;;;4917921;29;20123;-87
2023/01/25 04:45:45;;;;;;;55.33;28.27;;;-0.60;99.90;;;;;;4900339;29;20520;-86
2023/01/25 04:48:12;;;;;;;50.53;27.40;;;-0.60;99.90;;;;;;4899569;29;20112;-87
2023/01/25 04:50:39;;;;;;;52.97;28.37;;;-0.70;99.90;;;;;;4918005;29;20048;-86
2023/01/25 04:53:06;;;;;;;51.43;27.87;;;-0.70;99.90;;;;;;4899522;29;20059;-86
2023/01/25 04:55:35;;;;;;;52.80;27.37;;;-0.70;99.90;;;;;;4900278;29;20044;-86
2023/01/25 04:58:02;;;;;;;53.97;28.37;;;-0.70;99.90;;;;;;4915915;29;20126;-87
2023/01/25 05:00:28;;;;;;;53.57;28.60;;;-0.70;99.90;;;;;;4899017;29;20135;-87
2023/01/25 05:02:54;;;;;;;47.93;25.23;;;-0.70;99.90;;;;;;4915785;29;20401;-86
2023/01/25 05:05:19;;;;;;;53.27;28.33;;;-0.70;99.90;;;;;;4881333;29;20053;-87
2023/01/25 05:07:45;;;;;;;51.07;27.13;;;-0.70;99.90;;;;;;4884238;29;20485;-86
2023/01/25 05:10:11;;;;;;;49.23;26.07;;;0.50;99.90;;;;;;4898240;29;20104;-86
2023/01/25 05:12:37;;;;;;;49.10;25.63;;;-0.80;99.90;;;;;;4898337;29;20051;-87
2023/01/25 05:15:03;;;;;;;47.90;25.73;;;-0.70;99.90;;;;;;4883140;29;20049;-87
2023/01/25 05:17:29;;;;;;;50.60;26.80;;;-0.70;99.90;;;;;;4882036;29;20045;-86
2023/01/25 05:19:55;;;;;;;49.23;24.90;;;-0.70;99.90;;;;;;4897329;29;20045;-86
2023/01/25 05:22:20;;;;;;;47.90;25.20;;;-0.80;99.90;;;;;;4881280;29;20057;-87
2023/01/25 05:24:46;;;;;;;46.73;24.83;;;-0.80;99.90;;;;;;4881379;29;20056;-87
2023/01/25 05:27:15;;;;;;;43.73;24.40;;;-0.90;99.90;;;;;;4897652;29;20334;-86
2023/01/25 05:29:45;;;;;;;43.33;23.83;;;-0.90;99.90;;;;;;4881494;29;20052;-86
2023/01/25 05:32:19;;;;;;;46.03;24.37;;;-0.90;99.90;;;;;;4880876;29;20044;-86
2023/01/25 05:34:45;;;;;;;44.57;23.30;;;-0.90;99.90;;;;;;4897424;29;20041;-86
2023/01/25 05:37:16;;;;;;;45.37;24.73;;;-0.90;99.90;;;;;;4881182;29;20087;-86
2023/01/25 05:39:42;;;;;;;45.57;24.33;;;-0.90;99.90;;;;;;4898306;29;20048;-86
2023/01/25 05:42:13;;;;;;;46.43;24.77;;;-0.90;99.90;;;;;;4896689;29;20029;-86
2023/01/25 05:44:39;;;;;;;47.67;24.50;;;-0.90;99.90;;;;;;4899047;29;20076;-86
2023/01/25 05:47:05;;;;;;;46.80;25.43;;;-0.90;99.90;;;;;;4898011;29;20076;-86
2023/01/25 05:49:31;;;;;;;46.33;25.23;;;-0.90;99.90;;;;;;4880343;29;20060;-86
2023/01/25 05:51:56;;;;;;;50.30;24.80;;;-0.90;99.90;;;;;;4897912;29;20048;-86
2023/01/25 05:54:22;;;;;;;49.83;24.53;;;-0.90;99.90;;;;;;4882988;29;20048;-87
2023/01/25 05:56:50;;;;;;;46.73;24.83;;;-0.90;99.90;;;;;;4897446;29;20052;-86
2023/01/25 05:59:16;;;;;;;45.57;23.70;;;-0.90;99.90;;;;;;4890199;29;20048;-86
2023/01/25 06:01:42;;;;;;;45.93;24.30;;;-0.90;99.90;;;;;;4884992;29;20080;-86
2023/01/25 06:04:15;;;;;;;43.60;23.23;;;-0.90;99.90;;;;;;4901397;29;20048;-86
2023/01/25 06:06:41;;;;;;;47.40;23.67;;;-1.00;99.90;;;;;;4885008;29;20568;-86
2023/01/25 06:09:15;;;;;;;46.27;24.13;;;-1.00;99.90;;;;;;4883690;29;20145;-86
2023/01/25 06:11:44;;;;;;;42.37;24.17;;;-1.00;99.90;;;;;;4884759;29;20048;-86
2023/01/25 06:14:10;;;;;;;44.53;24.50;;;-1.10;99.90;;;;;;4901528;29;20052;-86
2023/01/25 06:16:35;;;;;;;45.17;23.43;;;-1.00;99.90;;;;;;4900296;29;20040;-86
2023/01/25 06:19:03;;;;;;;45.77;23.13;;;-1.00;99.90;;;;;;4898114;29;20032;-87
2023/01/25 06:21:28;;;;;;;45.07;23.87;;;-0.80;99.90;;;;;;4901681;29;20051;-86
2023/01/25 06:23:54;;;;;;;46.53;24.53;;;-1.00;99.90;;;;;;4900288;29;20048;-86
2023/01/25 06:26:20;;;;;;;44.33;22.30;;;-1.00;99.90;;;;;;4901499;29;20045;-86
2023/01/25 06:28:45;;;;;;;44.13;23.27;;;-1.00;99.90;;;;;;4884252;29;20043;-86
2023/01/25 06:31:13;;;;;;;46.20;24.17;;;-1.00;99.90;;;;;;4883573;29;20540;-86
2023/01/25 06:33:40;;;;;;;46.07;23.50;;;-1.00;99.90;;;;;;4884624;29;20052;-86
2023/01/25 06:36:12;;;;;;;49.37;25.10;;;-1.00;99.90;;;;;;4884315;29;20084;-86
2023/01/25 06:38:38;;;;;;;45.20;23.87;;;-1.00;99.90;;;;;;4899218;29;20520;-87
2023/01/25 06:41:05;;;;;;;43.73;23.13;;;-1.00;99.90;;;;;;4883649;29;20041;-87
2023/01/25 06:43:32;;;;;;;46.33;24.87;;;-1.00;99.90;;;;;;4884528;29;20084;-87
2023/01/25 06:46:03;;;;;;;43.83;23.53;;;-1.10;99.90;;;;;;4906510;29;20055;-87
2023/01/25 06:48:30;;;;;;;50.27;25.43;;;-1.10;99.90;;;;;;4900207;29;20401;-87
2023/01/25 06:50:58;;;;;;;47.43;24.13;;;-1.10;99.90;;;;;;4900778;29;20059;-86
2023/01/25 06:53:28;;;;;;;49.13;25.60;;;-1.00;99.90;;;;;;4888049;29;20049;-86
2023/01/25 06:56:04;;;;;;;47.57;24.37;;;-1.00;99.90;;;;;;4916508;29;20040;-87
2023/01/25 06:58:31;;;;;;;48.57;25.50;;;-1.00;99.90;;;;;;4900389;29;20543;-87
2023/01/25 07:01:05;;;;;;;47.87;25.47;;;-1.00;99.90;;;;;;4883532;29;20049;-87
2023/01/25 07:03:31;;;;;;;49.33;25.63;;;-1.00;99.90;;;;;;4884053;29;20052;-87
2023/01/25 07:05:59;;;;;;;48.60;24.50;;;-1.00;99.90;;;;;;4882538;29;20045;-87
2023/01/25 07:08:24;;;;;;;49.10;25.47;;;-1.00;99.90;;;;;;4883807;29;20060;-82
2023/01/25 07:10:58;;;;;;;45.47;24.20;;;-1.00;99.90;;;;;;4898941;29;20056;-80
2023/01/25 07:13:25;;;;;;;47.70;24.75;;;-1.00;99.90;;;;;;4882771;29;20486;-80
2023/01/25 07:15:55;;;;;;;43.53;22.87;;;-1.00;99.90;;;;;;4883010;29;20146;-79
2023/01/25 07:18:21;;;;;;;47.20;24.13;;;-1.00;99.90;;;;;;4900441;29;20045;-81
2023/01/25 07:20:47;;;;;;;47.33;25.00;;;-1.00;99.90;;;;;;4882335;29;20135;-82
2023/01/25 07:23:13;;;;;;;46.07;24.53;;;-1.00;99.90;;;;;;4900081;29;20048;-82
2023/01/25 07:25:49;;;;;;;42.13;22.53;;;-0.90;99.90;;;;;;4899923;29;20049;-82
2023/01/25 07:28:16;;;;;;;43.30;23.13;;;-1.00;99.90;;;;;;4882401;29;20076;-81
2023/01/25 07:30:42;;;;;;;39.63;21.53;;;-1.00;99.90;;;;;;4883092;29;20045;-82
2023/01/25 07:33:09;;;;;;;40.83;22.00;;;-1.00;99.90;;;;;;4887486;29;20060;-82
2023/01/25 07:35:35;;;;;;;40.20;22.23;;;-1.00;99.90;;;;;;4882531;29;20049;-81
2023/01/25 07:38:02;;;;;;;38.17;20.87;;;-1.00;99.90;;;;;;4885023;29;20054;-80
2023/01/25 07:40:27;;;;;;;39.20;21.43;;;-1.00;99.90;;;;;;4918324;29;20052;-81
2023/01/25 07:42:53;;;;;;;39.23;21.17;;;-1.00;99.90;;;;;;4892911;29;20101;-80
2023/01/25 07:45:19;;;;;;;40.67;22.07;;;-1.10;99.90;;;;;;4895589;29;20048;-81
2023/01/25 07:47:45;;;;;;;39.97;21.27;;;-1.10;99.90;;;;;;4906136;29;20076;-82
2023/01/25 07:50:11;;;;;;;42.40;21.67;;;-1.00;99.90;;;;;;4911197;29;20052;-82
2023/01/25 07:52:37;;;;;;;40.03;21.50;;;-1.10;99.90;;;;;;4903470;29;20165;-82
2023/01/25 07:55:03;;;;;;;39.87;22.50;;;-1.00;99.90;;;;;;4899841;29;20072;-81
2023/01/25 07:57:29;;;;;;;39.60;21.20;;;-1.00;99.90;;;;;;4917683;29;20044;-82
2023/01/25 07:59:55;;;;;;;39.17;21.17;;;-1.00;99.90;;;;;;4882150;29;20052;-81
2023/01/25 08:02:20;;;;;;;38.50;19.93;;;-1.00;99.90;;;;;;4897834;29;20063;-82
2023/01/25 08:04:46;;;;;;;39.87;21.50;;;-1.00;99.90;;;;;;4899943;29;20040;-82
2023/01/25 08:07:13;;;;;;;39.47;21.07;;;-0.10;99.90;;;;;;4917536;29;20465;-82
2023/01/25 08:09:40;;;;;;;38.10;20.47;;;-1.00;99.90;;;;;;4895111;29;20048;-82
2023/01/25 08:12:06;;;;;;;39.03;21.43;;;-1.00;99.90;;;;;;4889515;29;20048;-82
2023/01/25 08:14:32;;;;;;;42.27;21.80;;;-1.00;99.90;;;;;;4900190;29;20047;-81
2023/01/25 08:16:58;;;;;;;42.10;21.97;;;-0.90;99.90;;;;;;4915735;29;20044;-81
2023/01/25 08:19:24;;;;;;;39.17;20.93;;;-1.00;99.90;;;;;;4900172;29;20044;-82
2023/01/25 08:21:51;;;;;;;38.73;20.87;;;-1.00;99.90;;;;;;4903830;29;20057;-81
2023/01/25 08:24:17;;;;;;;38.00;19.60;;;0.20;99.90;;;;;;4897759;29;20049;-85
2023/01/25 08:26:42;;;;;;;37.70;20.43;;;-1.00;99.90;;;;;;4917039;29;20088;-83
2023/01/25 08:29:09;;;;;;;37.37;20.13;;;0.20;99.90;;;;;;4915081;29;20052;-81
2023/01/25 08:31:37;;;;;;;39.17;21.83;;;-1.00;99.90;;;;;;4918140;29;20058;-81
2023/01/25 08:34:04;;;;;;;39.17;20.37;;;-1.00;99.90;;;;;;4904648;29;20047;-81
2023/01/25 08:36:30;;;;;;;38.13;20.77;;;-1.00;99.90;;;;;;4880878;29;20052;-81
2023/01/25 08:39:01;;;;;;;39.00;20.90;;;-1.00;99.90;;;;;;4909189;29;20397;-82
2023/01/25 08:41:29;;;;;;;38.33;20.57;;;-1.00;99.90;;;;;;4916874;29;20044;-82
2023/01/25 08:43:55;;;;;;;45.53;25.30;;;-1.00;99.90;;;;;;4915867;29;20044;-82
2023/01/25 08:46:23;;;;;;;46.87;26.33;;;-1.00;99.90;;;;;;4917139;29;20047;-81
2023/01/25 08:48:56;;;;;;;41.37;24.00;;;-0.90;99.90;;;;;;4916179;29;20107;-81
2023/01/25 08:51:22;;;;;;;44.20;25.43;;;-1.00;99.90;;;;;;4899290;29;20411;-81
2023/01/25 08:53:48;;;;;;;42.53;22.23;;;-1.00;99.90;;;;;;4899140;29;20048;-80
2023/01/25 08:56:15;;;;;;;39.63;21.33;;;-0.90;99.90;;;;;;4915998;29;20052;-80
2023/01/25 08:58:44;;;;;;;87.73;50.07;;;-1.00;99.90;;;;;;4898569;29;20064;-80
2023/01/25 09:01:12;;;;;;;51.73;29.43;;;-0.90;99.90;;;;;;4899530;29;20052;-80
2023/01/25 09:03:40;;;;;;;39.10;20.73;;;-0.90;99.90;;;;;;4883720;29;20047;-80
2023/01/25 09:06:07;;;;;;;47.63;28.13;;;-0.90;99.90;;;;;;4896776;29;20291;-81
2023/01/25 09:08:33;;;;;;;39.70;20.63;;;-0.90;99.90;;;;;;4880772;29;20055;-82
2023/01/25 09:11:04;;;;;;;37.53;20.47;;;-0.90;99.90;;;;;;4896797;29;20385;-81
2023/01/25 09:13:32;;;;;;;42.03;23.47;;;-0.90;99.90;;;;;;4908663;29;20036;-81
2023/01/25 09:16:03;;;;;;;45.33;26.80;;;-0.90;99.90;;;;;;4915661;29;20039;-81
2023/01/25 09:18:29;;;;;;;38.20;20.37;;;-0.80;99.90;;;;;;4916268;29;20123;-81
2023/01/25 09:20:55;;;;;;;39.40;21.77;;;-0.80;99.90;;;;;;4897877;29;20048;-81
2023/01/25 09:23:22;;;;;;;38.17;21.33;;;-0.80;99.90;;;;;;4916630;29;20489;-82
2023/01/25 09:25:55;;;;;;;39.67;21.50;;;-0.80;99.90;;;;;;4898492;29;20052;-81
2023/01/25 09:28:20;;;;;;;41.00;23.17;;;-0.80;99.90;;;;;;4898193;29;20082;-81
2023/01/25 09:30:53;;;;;;;40.40;21.07;;;-0.80;99.90;;;;;;4899000;29;20552;-81
2023/01/25 09:33:19;;;;;;;40.92;21.70;;;-0.80;99.90;;;;;;4897496;29;20461;-82
2023/01/25 09:35:48;;;;;;;38.17;22.33;;;-0.80;99.90;;;;;;4915751;29;20050;-81
2023/01/25 09:38:14;;;;;;;43.47;22.47;;;-0.70;99.90;;;;;;4914213;29;20103;-81
2023/01/25 09:40:54;;;;;;;42.37;22.73;;;-0.80;99.90;;;;;;4907873;29;20067;-81
2023/01/25 09:43:48;;;;;;;42.87;21.57;;;-0.80;99.90;;;;;;4895774;29;20060;-81
2023/01/25 09:46:38;;;;;;;39.30;21.10;;;-0.80;99.90;;;;;;4896697;29;20055;-81
2023/01/25 09:49:12;;;;;;;39.10;21.10;;;-0.90;99.90;;;;;;4879094;29;20057;-81
2023/01/25 09:52:04;;;;;;;38.30;21.03;;;-0.90;99.90;;;;;;4880869;29;20416;-81
2023/01/25 09:54:33;;;;;;;39.93;21.33;;;-0.90;99.90;;;;;;4889821;29;20059;-81
2023/01/25 09:56:59;;;;;;;39.80;20.93;;;-0.90;99.90;;;;;;4880007;29;20056;-82
2023/01/25 09:59:29;;;;;;;39.50;21.47;;;-1.00;99.90;;;;;;4900099;29;20089;-80
2023/01/25 10:01:58;;;;;;;45.03;24.10;;;-0.90;99.90;;;;;;4897083;29;20104;-81
2023/01/25 10:04:29;;;;;;;39.23;20.83;;;-0.90;99.90;;;;;;4896901;29;20041;-82
2023/01/25 10:07:11;;;;;;;44.40;22.83;;;-0.90;99.90;;;;;;4894187;29;20044;-81
2023/01/25 10:09:50;;;;;;;39.83;21.10;;;-0.90;99.90;;;;;;4891056;29;20049;-81
2023/01/25 10:12:24;;;;;;;42.73;23.37;;;-0.80;99.90;;;;;;4887994;29;20382;-81
2023/01/25 10:14:51;;;;;;;40.35;21.98;;;-0.80;99.90;;;;;;4898890;29;20400;-80
2023/01/25 10:17:37;;;;;;;39.93;21.70;;;-0.80;99.90;;;;;;4915312;29;20388;-81
2023/01/25 10:20:19;;;;;;;43.63;22.67;;;-0.80;99.90;;;;;;4914395;29;20055;-81
2023/01/25 10:23:19;;;;;;;42.10;21.77;;;-0.80;99.90;;;;;;4886058;29;20063;-80
2023/01/25 10:25:53;;;;;;;40.20;21.87;;;-0.80;99.90;;;;;;4879909;29;20127;-81
2023/01/25 10:28:43;;;;;;;42.80;22.13;;;-0.80;99.90;;;;;;4892322;29;20052;-80
2023/01/25 10:31:26;;;;;;;40.73;21.57;;;-0.80;99.90;;;;;;4911579;29;20074;-80
2023/01/25 10:33:53;;;;;;;41.13;22.17;;;-0.80;99.90;;;;;;4914715;29;20400;-80
2023/01/25 10:36:28;;;;;;;42.47;22.30;;;-0.80;99.90;;;;;;4892735;29;20056;-81
2023/01/25 10:38:58;;;;;;;40.87;21.37;;;-0.80;99.90;;;;;;4879507;29;20044;-81
2023/01/25 10:41:37;;;;;;;40.77;21.23;;;-0.90;99.90;;;;;;4879311;29;20068;-81
2023/01/25 10:44:23;;;;;;;37.10;19.27;;;-0.80;99.90;;;;;;4882815;29;20409;-80
2023/01/25 10:47:16;;;;;;;36.53;18.50;;;-1.00;99.90;;;;;;4917037;29;20103;-81
2023/01/25 10:49:46;;;;;;;37.00;19.30;;;-1.00;99.90;;;;;;4909621;29;20063;-81
2023/01/25 10:52:27;;;;;;;36.43;19.37;;;-1.10;99.90;;;;;;4906524;29;20048;-81
2023/01/25 10:55:15;;;;;;;36.03;18.73;;;-1.10;99.90;;;;;;4899401;29;20405;-80
2023/01/25 10:58:08;;;;;;;36.60;18.87;;;-1.10;99.90;;;;;;4891417;29;20130;-80
2023/01/25 11:00:39;;;;;;;38.50;19.17;;;-1.00;99.90;;;;;;4908233;29;20553;-80
2023/01/25 11:03:18;;;;;;;38.57;19.83;;;-1.10;99.90;;;;;;4912519;29;20188;-80
2023/01/25 11:05:53;;;;;;;40.43;20.30;;;-1.10;99.90;;;;;;4917720;29;20044;-80
2023/01/25 11:08:30;;;;;;;35.93;18.83;;;-1.10;99.90;;;;;;4917749;29;20052;-80
2023/01/25 11:10:57;;;;;;;37.60;19.77;;;-1.10;99.90;;;;;;4918578;29;20096;-80
2023/01/25 11:13:24;;;;;;;36.67;19.03;;;-1.00;99.90;;;;;;4915945;29;20032;-80
2023/01/25 11:15:53;;;;;;;36.17;20.07;;;-1.00;99.90;;;;;;4895115;29;20047;-80
2023/01/25 11:18:25;;;;;;;38.37;19.67;;;-0.90;99.90;;;;;;4917602;29;20501;-80
2023/01/25 11:21:04;;;;;;;37.27;19.27;;;-0.90;99.90;;;;;;4900245;29;20143;-80
2023/01/25 11:23:31;;;;;;;38.33;20.03;;;-1.10;99.90;;;;;;4901290;29;20050;-81
2023/01/25 11:26:15;;;;;;;37.33;19.13;;;-0.90;99.90;;;;;;4916126;29;20056;-82
2023/01/25 11:28:41;;;;;;;37.25;19.00;;;-0.90;99.90;;;;;;4901478;29;20633;-81
2023/01/25 11:31:13;;;;;;;36.03;18.93;;;-0.90;99.90;;;;;;4901456;29;20079;-82
2023/01/25 11:33:40;;;;;;;36.10;18.57;;;-0.90;99.90;;;;;;4900922;29;20059;-81
2023/01/25 11:36:25;;;;;;;40.73;19.97;;;-0.90;99.90;;;;;;4901393;29;20151;-81
2023/01/25 11:39:20;;;;;;;37.83;19.53;;;-0.90;99.90;;;;;;4902149;29;20048;-81
2023/01/25 11:42:14;;;;;;;37.80;19.48;;;-0.90;99.90;;;;;;4901104;29;20510;-80
2023/01/25 11:44:52;;;;;;;;;;;-1.00;99.90;;;;;;4918907;29;20054;-80
2023/01/25 11:47:29;;;;;;;39.50;19.73;;;-1.00;99.90;;;;;;4921268;29;19939;-80
2023/01/25 11:50:04;;;;;;;39.07;20.17;;;-1.10;99.90;;;;;;4918019;29;20048;-80
2023/01/25 11:53:07;;;;;;;37.27;19.17;;;-1.00;99.90;;;;;;4901142;29;20048;-80
2023/01/25 11:55:56;;;;;;;40.23;19.97;;;-1.10;99.90;;;;;;4915623;29;20134;-80
2023/01/25 11:58:35;;;;;;;38.10;19.20;;;-1.10;99.90;;;;;;4881888;29;20539;-81
2023/01/25 12:01:07;;;;;;;40.83;19.33;;;-1.10;99.90;;;;;;4898539;29;20059;-81
2023/01/25 12:04:07;;;;;;;102.53;37.10;;;-1.10;99.90;;;;;;4897775;29;20524;-81
2023/01/25 12:07:01;;;;;;;103.97;36.50;;;-1.10;99.90;;;;;;4899069;29;20512;-81
2023/01/25 12:09:44;;;;;;;;;;;-1.10;99.90;;;;;;4897663;29;20056;-81
2023/01/25 12:12:20;;;;;;;41.57;19.97;;;-1.20;99.90;;;;;;4881746;29;19923;-80
2023/01/25 12:15:07;;;;;;;62.63;25.00;;;-1.20;99.90;;;;;;4882029;29;20072;-81
2023/01/25 12:18:02;;;;;;;47.63;21.53;;;-1.10;99.90;;;;;;4899281;29;20148;-80
2023/01/25 12:20:40;;;;;;;38.63;19.53;;;-1.10;99.90;;;;;;4881875;29;20052;-81
2023/01/25 12:23:17;;;;;;;37.93;19.10;;;-1.20;99.90;;;;;;4881095;29;20049;-80
2023/01/25 12:26:03;;;;;;;41.03;20.33;;;-1.20;99.90;;;;;;4882111;29;20049;-81
2023/01/25 12:28:41;;;;;;;54.53;25.00;;;-1.20;99.90;;;;;;4898635;29;20044;-80
2023/01/25 12:31:27;;;;;;;41.67;21.07;;;-1.20;99.90;;;;;;4896795;29;20068;-80
2023/01/25 12:33:59;;;;;;;46.07;20.83;;;-1.20;99.90;;;;;;4880904;29;20052;-80
2023/01/25 12:36:43;;;;;;;41.60;20.00;;;-1.10;99.90;;;;;;4888509;29;20032;-80
2023/01/25 12:39:24;;;;;;;40.90;19.60;;;-1.20;99.90;;;;;;4915923;29;20488;-80
2023/01/25 12:42:15;;;;;;;38.47;19.10;;;-1.10;99.90;;;;;;4916940;29;20123;-80
2023/01/25 12:44:49;;;;;;;37.60;17.83;;;-1.20;99.90;;;;;;4916370;29;20063;-80